Time;durP1;ratioP1;P1;durP2;ratioP2;P2;SDS_P1;SDS_P2;PMS_P1;PMS_P2;Temp;Humidity;BMP_temperature;BMP_pressure;BME280_temperature;BME280_humidity;BME280_pressure;Samples;Min_cycle;Max_cycle;Signal;HPM_P1;HPM_P2
2022/09/27 00:01:07;;;;;;;;;;;15.00;68.00;;;;;;5028376;28;20370;-86
2022/09/27 00:03:32;;;;;;;;;;;15.00;68.00;;;;;;5038018;28;19968;-86
2022/09/27 00:06:04;;;;;;;;;;;15.00;68.00;;;;;;5029822;28;19952;-86
2022/09/27 00:08:31;;;;;;;;;;;14.90;68.00;;;;;;5043413;28;19913;-86
2022/09/27 00:10:57;;;;;;;;;;;14.90;68.00;;;;;;5024270;28;19925;-87
2022/09/27 00:13:23;;;;;;;;;;;15.00;68.10;;;;;;5003800;28;19917;-87
2022/09/27 00:15:54;;;;;;;;;;;14.90;68.00;;;;;;5023125;28;19917;-86
2022/09/27 00:18:20;;;;;;;;;;;14.90;68.10;;;;;;5042431;28;19913;-86
2022/09/27 00:20:45;;;;;;;;;;;14.90;68.10;;;;;;5032454;28;19917;-86
2022/09/27 00:23:12;;;;;;;;;;;14.90;68.10;;;;;;5027039;28;19925;-86
2022/09/27 00:25:38;;;;;;;;;;;14.90;68.10;;;;;;5028525;28;20328;-85
2022/09/27 00:28:04;;;;;;;;;;;14.90;68.10;;;;;;5034393;28;19921;-85
2022/09/27 00:30:29;;;;;;;;;;;14.90;68.10;;;;;;5027295;28;20358;-86
2022/09/27 00:32:55;;;;;;;;;;;14.90;68.10;;;;;;5010889;28;19918;-87
2022/09/27 00:35:21;;;;;;;;;;;14.90;68.10;;;;;;5033958;28;19917;-86
2022/09/27 00:37:49;;;;;;;;;;;14.90;68.10;;;;;;5012705;28;19917;-86
2022/09/27 00:40:15;;;;;;;;;;;14.80;68.10;;;;;;5038416;28;19921;-86
2022/09/27 00:42:40;;;;;;;;;;;14.80;68.10;;;;;;5007701;28;19924;-85
2022/09/27 00:45:11;;;;;;;;;;;14.80;68.10;;;;;;5029966;28;19980;-86
2022/09/27 00:47:57;;;;;;;;;;;14.80;68.10;;;;;;5040670;28;19913;-86
2022/09/27 00:50:26;;;;;;;;;;;14.80;68.10;;;;;;5025216;28;19914;-85
2022/09/27 00:53:02;;;;;;;;;;;14.80;68.10;;;;;;5035115;28;20013;-86
2022/09/27 00:55:30;;;;;;;;;;;14.80;68.10;;;;;;5025712;28;20011;-86
2022/09/27 00:57:56;;;;;;;;;;;14.70;68.10;;;;;;5036592;28;20013;-86
2022/09/27 01:00:22;;;;;;;;;;;14.70;68.10;;;;;;5025309;28;19920;-86
2022/09/27 01:02:49;;;;;;;;;;;14.70;68.10;;;;;;5008778;28;19913;-86
2022/09/27 01:05:16;;;;;;;;;;;14.70;68.10;;;;;;5027922;28;20066;-85
2022/09/27 01:07:42;;;;;;;;;;;14.70;68.10;;;;;;5026284;28;19913;-86
2022/09/27 01:10:08;;;;;;;;;;;14.70;68.10;;;;;;5004944;28;19917;-86
2022/09/27 01:12:40;;;;;;;;;;;14.70;68.10;;;;;;5008327;28;19913;-86
2022/09/27 01:15:07;;;;;;;;;;;14.70;68.10;;;;;;5035923;28;20261;-85
2022/09/27 01:17:41;;;;;;;;;;;14.70;68.10;;;;;;5017514;28;20381;-86
2022/09/27 01:20:28;;;;;;;;;;;14.70;68.20;;;;;;5033789;28;19913;-86
2022/09/27 01:23:09;;;;;;;;;;;14.60;68.10;;;;;;5021692;28;19925;-86
2022/09/27 01:25:47;;;;;;;;;;;14.60;68.10;;;;;;5043192;28;19924;-86
2022/09/27 01:28:15;;;;;;;;;;;14.60;68.10;;;;;;5035418;28;19917;-86
2022/09/27 01:31:01;;;;;;;;;;;14.60;68.20;;;;;;5040265;28;20004;-85
2022/09/27 01:33:30;;;;;;;;;;;14.60;68.80;;;;;;5023670;28;19944;-86
2022/09/27 01:36:15;;;;;;;;;;;14.60;68.20;;;;;;5040296;28;19912;-85
2022/09/27 01:38:44;;;;;;;;;;;14.60;68.20;;;;;;5041123;28;19921;-85
2022/09/27 01:41:34;;;;;;;;;;;14.50;68.10;;;;;;5023734;28;19913;-86
2022/09/27 01:44:24;;;;;;;;;;;14.50;68.20;;;;;;5021831;28;19929;-86
2022/09/27 01:47:00;;;;;;;;;;;14.50;68.20;;;;;;5033156;28;19920;-85
2022/09/27 01:49:48;;;;;;;;;;;14.50;68.20;;;;;;5021253;28;20247;-86
2022/09/27 01:52:17;;;;;;;;;;;14.50;68.20;;;;;;4998445;28;19940;-85
2022/09/27 01:54:46;;;;;;;;;;;14.50;68.20;;;;;;5019077;28;19944;-86
2022/09/27 01:57:32;;;;;;;;;;;14.50;68.20;;;;;;5039919;28;20281;-85
2022/09/27 02:00:00;;;;;;;;;;;14.50;68.20;;;;;;5015692;28;20342;-86
2022/09/27 02:02:46;;;;;;;;;;;14.50;68.20;;;;;;5034975;28;19913;-85
2022/09/27 02:05:36;;;;;;;;;;;14.40;68.20;;;;;;5032389;28;19948;-85
2022/09/27 02:08:27;;;;;;;;;;;14.50;68.30;;;;;;5046034;28;19914;-86
2022/09/27 02:10:56;;;;;;;;;;;14.40;68.20;;;;;;5007893;28;20368;-85
2022/09/27 02:13:25;;;;;;;;;;;14.40;68.20;;;;;;5009701;28;19913;-86
2022/09/27 02:15:58;;;;;;;;;;;14.40;68.20;;;;;;5038620;28;19967;-85
2022/09/27 02:18:54;;;;;;;;;;;14.40;68.20;;;;;;5037019;28;20011;-86
2022/09/27 02:21:24;;;;;;;;;;;14.40;68.20;;;;;;5029513;28;19968;-85
2022/09/27 02:23:52;;;;;;;;;;;14.40;68.30;;;;;;5019738;28;19928;-85
2022/09/27 02:26:23;;;;;;;;;;;14.30;68.20;;;;;;5034503;28;19913;-86
2022/09/27 02:28:49;;;;;;;;;;;14.30;68.20;;;;;;5041226;28;19917;-86
2022/09/27 02:31:23;;;;;;;;;;;14.30;68.20;;;;;;5014991;28;19913;-85
2022/09/27 02:33:51;;;;;;;;;;;14.30;68.20;;;;;;5015071;28;20457;-85
2022/09/27 02:36:17;;;;;;;;;;;14.30;68.20;;;;;;5036167;28;19923;-85
2022/09/27 02:38:43;;;;;;;;;;;14.30;68.30;;;;;;5019198;28;19917;-85
2022/09/27 02:41:14;;;;;;;;;;;14.30;68.30;;;;;;5024327;28;19917;-85
2022/09/27 02:43:41;;;;;;;;;;;14.30;68.30;;;;;;5019361;28;20007;-86
2022/09/27 02:46:10;;;;;;;;;;;14.30;68.30;;;;;;5038491;28;19917;-84
2022/09/27 02:48:44;;;;;;;;;;;14.20;68.20;;;;;;5038737;28;19919;-85
2022/09/27 02:51:22;;;;;;;;;;;14.30;68.30;;;;;;5032056;28;19920;-86
2022/09/27 02:53:51;;;;;;;;;;;14.20;68.20;;;;;;5034753;28;19913;-86
2022/09/27 02:56:55;;;;;;;;;;;14.20;68.30;;;;;;5027698;28;19917;-86
2022/09/27 03:00:08;;;;;;;;;;;14.20;68.30;;;;;;5037090;28;19925;-84
2022/09/27 03:03:25;;;;;;;;;;;14.20;68.30;;;;;;4996206;28;19996;-85
2022/09/27 03:06:07;;;;;;;;;;;14.10;68.20;;;;;;5033790;28;19940;-85
2022/09/27 03:08:32;;;;;;;;;;;14.10;68.30;;;;;;5039363;28;20003;-87
2022/09/27 03:10:58;;;;;;;;;;;14.10;68.40;;;;;;5021040;28;20347;-85
2022/09/27 03:13:24;;;;;;;;;;;14.10;68.30;;;;;;5015319;28;20043;-86
2022/09/27 03:15:50;;;;;;;;;;;14.10;68.30;;;;;;5017909;28;20000;-85
2022/09/27 03:18:48;;;;;;;;;;;14.10;68.30;;;;;;4981556;28;19917;-85
2022/09/27 03:21:36;;;;;;;;;;;14.10;68.30;;;;;;5038404;28;19928;-86
2022/09/27 03:24:02;;;;;;;;;;;14.00;68.30;;;;;;5049865;28;20156;-85
2022/09/27 03:26:28;;;;;;;;;;;14.10;68.30;;;;;;5046600;28;19913;-84
2022/09/27 03:28:54;;;;;;;;;;;14.10;68.40;;;;;;5015373;28;20277;-85
2022/09/27 03:31:20;;;;;;;;;;;14.00;68.30;;;;;;5023147;28;19917;-85
2022/09/27 03:34:05;;;;;;;;;;;14.00;68.30;;;;;;5008013;28;19921;-85
2022/09/27 03:36:30;;;;;;;;;;;14.00;68.30;;;;;;5037149;28;20388;-85
2022/09/27 03:38:56;;;;;;;;;;;14.00;68.30;;;;;;5035623;28;19920;-85
2022/09/27 03:41:22;;;;;;;;;;;14.00;68.30;;;;;;5027194;28;20423;-85
2022/09/27 03:43:47;;;;;;;;;;;13.90;68.30;;;;;;5025124;28;19940;-84
2022/09/27 03:46:13;;;;;;;;;;;14.00;68.30;;;;;;5022289;28;20377;-85
2022/09/27 03:48:40;;;;;;;;;;;14.00;68.30;;;;;;5023954;28;19921;-85
2022/09/27 03:51:07;;;;;;;;;;;13.90;68.90;;;;;;5012706;28;19924;-86
2022/09/27 03:53:33;;;;;;;;;;;13.90;68.30;;;;;;5027350;28;20273;-84
2022/09/27 03:55:59;;;;;;;;;;;13.90;68.30;;;;;;5018940;28;19917;-85
2022/09/27 03:58:25;;;;;;;;;;;13.90;68.30;;;;;;5012919;28;19921;-85
2022/09/27 04:00:50;;;;;;;;;;;13.90;68.30;;;;;;5024709;28;19955;-85
2022/09/27 04:03:18;;;;;;;;;;;13.90;68.30;;;;;;5035902;28;19968;-84
2022/09/27 04:06:02;;;;;;;;;;;13.90;68.40;;;;;;5033871;28;19923;-83
2022/09/27 04:08:36;;;;;;;;;;;13.90;68.40;;;;;;5015710;28;19917;-84
2022/09/27 04:11:02;;;;;;;;;;;13.80;68.30;;;;;;5046799;28;19912;-83
2022/09/27 04:13:28;;;;;;;;;;;13.90;68.40;;;;;;5038241;28;19975;-82
2022/09/27 04:15:55;;;;;;;;;;;13.80;68.40;;;;;;5006830;28;20008;-82
2022/09/27 04:18:53;;;;;;;;;;;13.80;68.40;;;;;;5013680;28;19918;-82
2022/09/27 04:21:39;;;;;;;;;;;13.80;68.30;;;;;;5027544;28;19983;-82
2022/09/27 04:24:06;;;;;;;;;;;13.80;68.40;;;;;;5018450;28;19932;-81
2022/09/27 04:26:33;;;;;;;;;;;13.80;68.40;;;;;;5027797;28;19924;-82
2022/09/27 04:29:08;;;;;;;;;;;13.80;68.40;;;;;;5022435;28;20019;-82
2022/09/27 04:31:37;;;;;;;;;;;13.70;68.30;;;;;;5040015;28;20282;-82
2022/09/27 04:36:25;;;;;;;;;;;13.70;68.30;;;;;;5029813;28;20396;-82
2022/09/27 04:37:08;;;;;;;;;;;13.70;69.00;;;;;;5018446;28;20051;-83
2022/09/27 04:39:38;;;;;;;;;;;13.70;68.40;;;;;;5009511;28;20498;-82
2022/09/27 04:42:04;;;;;;;;;;;13.70;68.40;;;;;;5030028;28;19937;-82
2022/09/27 04:44:30;;;;;;;;;;;13.70;68.40;;;;;;5033257;28;19933;-83
2022/09/27 04:46:56;;;;;;;;;;;13.70;68.50;;;;;;5025186;28;19924;-82
2022/09/27 04:49:21;;;;;;;;;;;13.70;68.40;;;;;;5019451;28;20319;-83
2022/09/27 04:51:47;;;;;;;;;;;13.70;68.40;;;;;;5009392;28;20665;-83
2022/09/27 04:54:13;;;;;;;;;;;13.70;68.40;;;;;;5032908;28;19913;-83
2022/09/27 04:56:50;;;;;;;;;;;13.70;68.50;;;;;;5022182;28;19917;-85
2022/09/27 04:59:15;;;;;;;;;;;13.60;68.40;;;;;;5020552;28;19939;-82
2022/09/27 05:01:41;;;;;;;;;;;13.60;68.40;;;;;;5008534;28;19913;-83
2022/09/27 05:04:19;;;;;;;;;;;13.60;68.40;;;;;;5026198;28;19960;-82
2022/09/27 05:06:47;;;;;;;;;;;13.60;68.40;;;;;;5010351;28;19917;-83
2022/09/27 05:09:27;;;;;;;;;;;13.60;68.40;;;;;;5011011;28;19948;-83
2022/09/27 05:11:55;;;;;;;;;;;13.60;68.40;;;;;;5020064;28;19925;-83
2022/09/27 05:14:36;;;;;;;;;;;13.60;68.40;;;;;;5026295;28;19926;-83
2022/09/27 05:17:19;;;;;;;;;;;13.60;68.40;;;;;;5025616;28;19923;-81
2022/09/27 05:20:11;;;;;;;;;;;13.60;68.50;;;;;;5009482;28;19913;-83
2022/09/27 05:22:41;;;;;;;;;;;13.60;68.40;;;;;;5038187;28;20301;-83
2022/09/27 05:25:08;;;;;;;;;;;13.60;68.50;;;;;;5009684;28;20319;-82
2022/09/27 05:27:33;;;;;;;;;;;13.60;68.50;;;;;;5034392;28;19913;-83
2022/09/27 05:30:02;;;;;;;;;;;13.60;68.50;;;;;;5031955;28;19975;-82
2022/09/27 05:32:45;;;;;;;;;;;13.60;68.50;;;;;;5041083;28;19917;-82
2022/09/27 05:35:29;;;;;;;;;;;13.60;68.50;;;;;;5029382;28;19923;-82
2022/09/27 05:37:59;;;;;;;;;;;13.60;68.50;;;;;;5023450;28;19917;-82
2022/09/27 05:40:28;;;;;;;;;;;13.50;68.50;;;;;;5026749;28;19970;-84
2022/09/27 05:42:54;;;;;;;;;;;13.50;68.50;;;;;;5026543;28;19917;-83
2022/09/27 05:45:21;;;;;;;;;;;13.50;68.50;;;;;;5020110;28;19920;-83
2022/09/27 05:47:54;;;;;;;;;;;13.50;68.50;;;;;;5040240;28;19945;-83
2022/09/27 05:50:20;;;;;;;;;;;13.50;68.50;;;;;;5042697;28;19913;-83
2022/09/27 05:52:45;;;;;;;;;;;13.50;68.40;;;;;;5030576;28;19909;-83
2022/09/27 05:55:12;;;;;;;;;;;13.50;68.50;;;;;;5021431;28;19928;-83
2022/09/27 05:57:37;;;;;;;;;;;13.50;68.50;;;;;;5030368;28;19917;-84
2022/09/27 06:00:06;;;;;;;;;;;13.50;68.50;;;;;;4987776;28;20385;-83
2022/09/27 06:02:38;;;;;;;;;;;13.50;68.50;;;;;;5016638;28;19921;-84
2022/09/27 06:05:39;;;;;;;;;;;13.50;68.50;;;;;;4978620;28;20337;-83
2022/09/27 06:08:34;;;;;;;;;;;13.50;68.50;;;;;;5001370;28;20349;-84
2022/09/27 06:11:03;;;;;;;;;;;13.40;68.50;;;;;;5037901;28;20377;-83
2022/09/27 06:13:29;;;;;;;;;;;13.40;68.50;;;;;;5032667;28;20373;-83
2022/09/27 06:15:55;;;;;;;;;;;13.40;68.50;;;;;;5025096;28;20007;-84
2022/09/27 06:18:21;;;;;;;;;;;13.40;68.50;;;;;;5017681;28;19975;-84
2022/09/27 06:20:48;;;;;;;;;;;13.40;68.50;;;;;;5011499;28;19917;-83
2022/09/27 06:23:17;;;;;;;;;;;13.40;68.50;;;;;;5020797;28;19929;-84
2022/09/27 06:25:43;;;;;;;;;;;13.40;68.50;;;;;;5034860;28;19920;-83
2022/09/27 06:28:20;;;;;;;;;;;13.40;68.50;;;;;;5027953;28;20007;-84
2022/09/27 06:30:49;;;;;;;;;;;13.40;68.50;;;;;;5010245;28;19914;-84
2022/09/27 06:33:29;;;;;;;;;;;13.40;68.50;;;;;;5028641;28;19916;-84
2022/09/27 06:35:59;;;;;;;;;;;13.40;68.50;;;;;;5035223;28;19917;-84
2022/09/27 06:38:25;;;;;;;;;;;13.40;68.50;;;;;;5017652;28;19913;-82
2022/09/27 06:41:05;;;;;;;;;;;13.40;68.50;;;;;;5029304;28;20376;-83
2022/09/27 06:43:49;;;;;;;;;;;13.40;68.50;;;;;;5028664;28;20340;-84
2022/09/27 06:46:33;;;;;;;;;;;13.40;68.50;;;;;;5022801;28;19971;-84
2022/09/27 06:49:18;;;;;;;;;;;13.40;68.60;;;;;;5045405;28;19962;-84
2022/09/27 06:51:45;;;;;;;;;;;13.40;68.60;;;;;;5033587;28;19960;-84
2022/09/27 06:54:11;;;;;;;;;;;13.30;68.50;;;;;;5030551;28;19948;-83
2022/09/27 06:56:36;;;;;;;;;;;13.40;68.60;;;;;;5017500;28;19964;-84
2022/09/27 07:01:46;;;;;;;;;;;13.40;68.60;;;;;;5040478;28;19923;-83
2022/09/27 07:04:31;;;;;;;;;;;13.40;68.60;;;;;;5027401;28;19943;-82
2022/09/27 07:07:16;;;;;;;;;;;13.30;68.50;;;;;;5026296;28;20357;-84
2022/09/27 07:09:47;;;;;;;;;;;13.30;68.60;;;;;;5030384;28;19913;-84
2022/09/27 07:12:13;;;;;;;;;;;13.40;68.60;;;;;;5024611;28;19920;-83
2022/09/27 07:14:39;;;;;;;;;;;13.40;68.60;;;;;;5032333;28;19913;-84
2022/09/27 07:17:07;;;;;;;;;;;13.30;68.60;;;;;;5029883;28;19932;-84
2022/09/27 07:19:37;;;;;;;;;;;13.40;68.70;;;;;;5028362;28;20008;-83
2022/09/27 07:22:03;;;;;;;;;;;13.40;69.30;;;;;;5026364;28;20012;-84
2022/09/27 07:24:28;;;;;;;;;;;13.40;68.60;;;;;;5030118;28;19948;-84
2022/09/27 07:26:54;;;;;;;;;;;13.40;68.60;;;;;;5028394;28;19921;-84
2022/09/27 07:29:21;;;;;;;;;;;13.40;68.60;;;;;;5002852;28;19913;-84
2022/09/27 07:31:49;;;;;;;;;;;13.40;68.70;;;;;;5034849;28;20251;-83
2022/09/27 07:34:17;;;;;;;;;;;13.40;68.60;;;;;;5036060;28;19917;-84
2022/09/27 07:36:42;;;;;;;;;;;13.50;68.70;;;;;;5026973;28;19938;-83
2022/09/27 07:39:08;;;;;;;;;;;13.50;68.70;;;;;;5046335;28;20007;-84
2022/09/27 07:41:34;;;;;;;;;;;13.50;68.70;;;;;;5029721;28;19924;-84
2022/09/27 07:44:00;;;;;;;;;;;13.50;68.70;;;;;;5028447;28;20477;-85
2022/09/27 07:46:28;;;;;;;;;;;13.50;68.70;;;;;;5007504;28;19914;-85
2022/09/27 07:49:02;;;;;;;;;;;13.50;68.70;;;;;;5008380;28;20364;-84
2022/09/27 07:51:46;;;;;;;;;;;13.50;68.70;;;;;;5031725;28;19971;-84
2022/09/27 07:54:38;;;;;;;;;;;13.50;68.70;;;;;;5027746;28;19921;-84
2022/09/27 07:57:22;;;;;;;;;;;13.50;68.70;;;;;;5034213;28;19955;-84
2022/09/27 07:59:51;;;;;;;;;;;13.50;68.70;;;;;;5024010;28;20292;-84
2022/09/27 08:02:20;;;;;;;;;;;13.50;68.70;;;;;;5018454;28;19944;-85
2022/09/27 08:04:47;;;;;;;;;;;13.60;68.70;;;;;;5021792;28;19929;-85
2022/09/27 08:07:13;;;;;;;;;;;13.60;68.80;;;;;;5031104;28;20254;-84
2022/09/27 08:09:39;;;;;;;;;;;13.60;68.80;;;;;;5017865;28;19916;-84
2022/09/27 08:12:05;;;;;;;;;;;13.60;68.70;;;;;;5023363;28;19917;-84
2022/09/27 08:14:31;;;;;;;;;;;13.60;68.70;;;;;;5011236;28;19913;-84
2022/09/27 08:16:57;;;;;;;;;;;13.60;68.70;;;;;;5014545;28;19920;-84
2022/09/27 08:19:35;;;;;;;;;;;13.60;68.70;;;;;;5011827;28;20282;-84
2022/09/27 08:22:21;;;;;;;;;;;13.70;68.80;;;;;;4999185;28;19925;-85
2022/09/27 08:24:56;;;;;;;;;;;13.70;68.80;;;;;;5027863;28;19929;-85
2022/09/27 08:27:37;;;;;;;;;;;13.70;68.80;;;;;;5025002;28;19921;-84
2022/09/27 08:30:16;;;;;;;;;;;13.70;68.80;;;;;;5034209;28;19917;-84
2022/09/27 08:32:43;;;;;;;;;;;13.70;68.70;;;;;;5028365;28;19928;-85
2022/09/27 08:35:09;;;;;;;;;;;13.80;68.80;;;;;;5000259;28;19917;-85
2022/09/27 08:37:34;;;;;;;;;;;13.80;68.80;;;;;;5042833;28;19924;-84
2022/09/27 08:40:00;;;;;;;;;;;13.80;68.80;;;;;;5050255;28;19938;-84
2022/09/27 08:42:45;;;;;;;;;;;13.80;68.80;;;;;;5029279;28;19913;-84
2022/09/27 08:45:16;;;;;;;;;;;13.80;68.80;;;;;;5038290;28;20629;-85
2022/09/27 08:47:52;;;;;;;;;;;13.80;68.70;;;;;;5011991;28;19913;-85
2022/09/27 08:50:27;;;;;;;;;;;13.80;68.70;;;;;;5036299;28;19971;-84
2022/09/27 08:52:56;;;;;;;;;;;13.90;68.80;;;;;;5041242;28;20401;-85
2022/09/27 08:55:22;;;;;;;;;;;13.90;68.80;;;;;;5046118;28;20376;-84
2022/09/27 08:57:51;;;;;;;;;;;13.90;68.80;;;;;;5018826;28;19968;-85
2022/09/27 09:00:17;;;;;;;;;;;13.90;68.80;;;;;;5028988;28;19913;-84
2022/09/27 09:02:43;;;;;;;;;;;13.90;68.70;;;;;;5007069;28;19924;-85
2022/09/27 09:05:12;;;;;;;;;;;13.90;68.80;;;;;;5024445;28;20366;-85
2022/09/27 09:07:49;;;;;;;;;;;14.00;68.80;;;;;;5049896;28;19915;-85
2022/09/27 09:13:32;;;;;;;;;;;14.00;68.80;;;;;;5024321;28;20449;-86
2022/09/27 09:16:08;;;;;;;;;;;14.00;68.70;;;;;;5046008;28;19928;-85
2022/09/27 09:18:43;;;;;;;;;;;14.10;68.80;;;;;;5031949;28;19913;-85
2022/09/27 09:21:23;;;;;;;;;;;14.10;68.90;;;;;;5013611;28;19913;-85
2022/09/27 09:24:14;;;;;;;;;;;14.10;68.80;;;;;;5030072;28;19921;-85
2022/09/27 09:26:43;;;;;;;;;;;14.10;68.80;;;;;;5044660;28;19912;-85
2022/09/27 09:29:15;;;;;;;;;;;14.10;68.70;;;;;;5011405;28;19917;-85
2022/09/27 09:31:50;;;;;;;;;;;14.20;68.90;;;;;;5048699;28;19940;-86
2022/09/27 09:34:19;;;;;;;;;;;14.20;69.10;;;;;;5021604;28;19913;-85
2022/09/27 09:36:45;;;;;;;;;;;14.20;68.80;;;;;;5028168;28;19913;-85
2022/09/27 09:39:24;;;;;;;;;;;14.20;68.80;;;;;;5046219;28;20006;-86
2022/09/27 09:42:05;;;;;;;;;;;14.20;68.70;;;;;;5008945;28;19914;-85
2022/09/27 09:44:31;;;;;;;;;;;14.30;68.80;;;;;;5046055;28;20003;-85
2022/09/27 09:47:02;;;;;;;;;;;14.30;68.80;;;;;;5026778;28;20362;-85
2022/09/27 09:49:36;;;;;;;;;;;14.30;68.80;;;;;;5030386;28;19919;-85
2022/09/27 09:52:05;;;;;;;;;;;14.30;68.70;;;;;;5029550;28;19913;-85
2022/09/27 09:54:34;;;;;;;;;;;14.40;68.80;;;;;;5030442;28;19920;-84
2022/09/27 09:57:03;;;;;;;;;;;14.30;68.70;;;;;;5033031;28;19909;-84
2022/09/27 09:59:34;;;;;;;;;;;14.40;68.80;;;;;;5013181;28;19912;-84
2022/09/27 10:02:13;;;;;;;;;;;14.40;68.80;;;;;;5017314;28;20151;-85
2022/09/27 10:04:40;;;;;;;;;;;14.40;68.80;;;;;;5027927;28;19925;-84
2022/09/27 10:07:07;;;;;;;;;;;14.40;68.70;;;;;;5032716;28;20376;-85
2022/09/27 10:09:35;;;;;;;;;;;14.40;68.70;;;;;;5027931;28;20421;-84
2022/09/27 10:12:34;;;;;;;;;;;14.50;68.70;;;;;;5030164;28;19913;-84
2022/09/27 10:15:01;;;;;;;;;;;14.50;68.70;;;;;;5017000;28;19940;-85
2022/09/27 10:17:34;;;;;;;;;;;14.40;68.70;;;;;;5041979;28;19980;-85
2022/09/27 10:20:00;;;;;;;;;;;14.50;68.70;;;;;;5024934;28;20357;-84
2022/09/27 10:22:41;;;;;;;;;;;14.50;68.70;;;;;;5012329;28;20008;-84
2022/09/27 10:25:20;;;;;;;;;;;14.50;68.70;;;;;;5012069;28;19928;-86
2022/09/27 10:28:05;;;;;;;;;;;14.50;68.70;;;;;;5027761;28;19929;-83
2022/09/27 10:30:34;;;;;;;;;;;14.50;68.70;;;;;;5005441;28;20277;-86
2022/09/27 10:33:13;;;;;;;;;;;14.50;68.70;;;;;;5014830;28;19960;-82
2022/09/27 10:35:43;;;;;;;;;;;14.60;68.70;;;;;;5018668;28;19918;-85
2022/09/27 10:38:23;;;;;;;;;;;14.60;68.70;;;;;;5026949;28;19914;-83
2022/09/27 10:40:52;;;;;;;;;;;14.60;68.70;;;;;;5011631;28;19940;-84
2022/09/27 10:43:26;;;;;;;;;;;14.60;68.70;;;;;;5024198;28;20332;-83
2022/09/27 10:46:15;;;;;;;;;;;14.60;68.70;;;;;;5020763;28;19920;-83
2022/09/27 10:48:44;;;;;;;;;;;14.60;68.70;;;;;;5039328;28;19913;-84
2022/09/27 10:51:24;;;;;;;;;;;14.70;68.70;;;;;;5022364;28;20012;-83
2022/09/27 10:53:50;;;;;;;;;;;14.60;68.70;;;;;;5020716;28;19984;-85
2022/09/27 10:56:23;;;;;;;;;;;14.60;68.70;;;;;;5019892;28;19918;-85
2022/09/27 10:58:50;;;;;;;;;;;14.70;68.70;;;;;;5022523;28;20809;-85
2022/09/27 11:01:17;;;;;;;;;;;14.70;68.70;;;;;;5028039;28;20354;-85
2022/09/27 11:04:03;;;;;;;;;;;14.70;68.70;;;;;;5021720;28;20386;-84
2022/09/27 11:06:32;;;;;;;;;;;14.70;68.60;;;;;;5020638;28;19961;-85
2022/09/27 11:09:08;;;;;;;;;;;14.70;68.60;;;;;;5018512;28;19948;-83
2022/09/27 11:11:35;;;;;;;;;;;14.70;68.70;;;;;;5016723;28;19990;-84
2022/09/27 11:14:16;;;;;;;;;;;14.80;68.70;;;;;;5024662;28;19959;-84
2022/09/27 11:17:02;;;;;;;;;;;14.80;68.60;;;;;;5020264;28;20075;-84
2022/09/27 11:19:38;;;;;;;;;;;14.80;68.70;;;;;;5027336;28;20237;-85
2022/09/27 11:22:13;;;;;;;;;;;14.80;68.70;;;;;;5024745;28;19925;-83
2022/09/27 11:24:53;;;;;;;;;;;14.80;68.60;;;;;;5030308;28;19976;-84
2022/09/27 11:27:40;;;;;;;;;;;14.80;68.60;;;;;;5024012;28;19921;-84
2022/09/27 11:30:27;;;;;;;;;;;14.80;68.60;;;;;;5029489;28;19920;-81
2022/09/27 11:33:22;;;;;;;;;;;14.90;69.30;;;;;;5030542;28;19995;-84
2022/09/27 11:35:57;;;;;;;;;;;14.90;68.60;;;;;;5037965;28;19917;-83
2022/09/27 11:38:26;;;;;;;;;;;14.90;68.60;;;;;;5017463;28;19917;-83
2022/09/27 11:41:11;;;;;;;;;;;14.90;68.60;;;;;;5026932;28;20301;-84
2022/09/27 11:43:40;;;;;;;;;;;15.00;68.60;;;;;;5033544;28;19925;-83
2022/09/27 11:46:18;;;;;;;;;;;14.90;68.50;;;;;;5005978;28;19913;-83
2022/09/27 11:48:44;;;;;;;;;;;14.90;68.50;;;;;;5013198;28;19917;-84
2022/09/27 11:51:28;;;;;;;;;;;14.90;68.70;;;;;;5041730;28;20358;-84
2022/09/27 11:54:18;;;;;;;;;;;15.00;68.50;;;;;;5016396;28;19917;-84
2022/09/27 11:57:05;;;;;;;;;;;15.00;68.50;;;;;;5036642;28;19944;-83
2022/09/27 11:59:40;;;;;;;;;;;15.00;68.50;;;;;;5014270;28;20673;-83
2022/09/27 12:02:16;;;;;;;;;;;15.00;68.50;;;;;;5041719;28;19921;-83
2022/09/27 12:04:48;;;;;;;;;;;15.10;68.50;;;;;;5045130;28;19924;-83
2022/09/27 12:07:22;;;;;;;;;;;15.10;68.50;;;;;;5034614;28;19917;-83
2022/09/27 12:09:52;;;;;;;;;;;15.10;68.50;;;;;;5038719;28;20411;-83
2022/09/27 12:12:19;;;;;;;;;;;15.10;68.50;;;;;;5024299;28;20372;-83
2022/09/27 12:14:51;;;;;;;;;;;15.10;68.50;;;;;;5014611;28;19921;-83
2022/09/27 12:17:24;;;;;;;;;;;15.20;68.50;;;;;;5021147;28;19960;-85
2022/09/27 12:19:54;;;;;;;;;;;15.20;68.50;;;;;;5020435;28;19928;-84
2022/09/27 12:22:37;;;;;;;;;;;15.20;68.50;;;;;;5041328;28;19971;-83
2022/09/27 12:25:03;;;;;;;;;;;15.20;68.40;;;;;;5037199;28;19967;-83
2022/09/27 12:27:55;;;;;;;;;;;15.20;68.40;;;;;;5012036;28;19970;-84
2022/09/27 12:30:21;;;;;;;;;;;15.20;68.40;;;;;;5021743;28;19921;-83
2022/09/27 12:33:06;;;;;;;;;;;15.20;68.40;;;;;;5002827;28;19909;-84
2022/09/27 12:35:35;;;;;;;;;;;15.20;68.40;;;;;;5022192;28;19916;-81
2022/09/27 12:38:08;;;;;;;;;;;15.30;68.50;;;;;;5020448;28;19947;-84
2022/09/27 12:40:35;;;;;;;;;;;15.30;68.40;;;;;;5018930;28;19949;-83
2022/09/27 12:43:12;;;;;;;;;;;15.30;68.40;;;;;;5024660;28;19913;-82
2022/09/27 12:46:03;;;;;;;;;;;15.30;68.40;;;;;;5019065;28;19921;-82
2022/09/27 12:48:53;;;;;;;;;;;15.30;68.30;;;;;;5035385;28;20350;-82
2022/09/27 12:51:20;;;;;;;;;;;15.30;68.30;;;;;;4983804;28;19913;-83
2022/09/27 12:53:57;;;;;;;;;;;15.30;68.30;;;;;;5044292;28;19910;-83
2022/09/27 12:56:35;;;;;;;;;;;15.40;68.30;;;;;;5025150;28;19913;-83
2022/09/27 12:59:09;;;;;;;;;;;15.40;68.30;;;;;;5035416;28;19913;-83
2022/09/27 13:01:45;;;;;;;;;;;15.40;68.40;;;;;;5026336;28;19918;-83
2022/09/27 13:04:23;;;;;;;;;;;15.40;68.30;;;;;;5031825;28;19928;-83
2022/09/27 13:06:59;;;;;;;;;;;15.40;68.30;;;;;;5037429;28;20011;-83
2022/09/27 13:09:58;;;;;;;;;;;15.40;68.30;;;;;;5021558;28;19920;-83
2022/09/27 13:12:25;;;;;;;;;;;15.40;68.30;;;;;;4998740;28;19940;-83
2022/09/27 13:14:59;;;;;;;;;;;15.40;68.30;;;;;;5026288;28;19966;-82
2022/09/27 13:17:39;;;;;;;;;;;15.50;68.30;;;;;;5039629;28;19919;-82
2022/09/27 13:20:23;;;;;;;;;;;15.40;68.30;;;;;;5030075;28;19917;-82
2022/09/27 13:22:50;;;;;;;;;;;15.50;68.30;;;;;;5023579;28;19928;-83
2022/09/27 13:25:42;;;;;;;;;;;15.40;68.20;;;;;;5034586;28;20046;-83
2022/09/27 13:28:31;;;;;;;;;;;15.50;68.30;;;;;;5023188;28;21043;-82
2022/09/27 13:30:57;;;;;;;;;;;15.50;68.20;;;;;;5018776;28;20324;-81
2022/09/27 13:33:40;;;;;;;;;;;15.50;68.20;;;;;;5012384;28;19913;-83
2022/09/27 13:36:23;;;;;;;;;;;15.50;68.20;;;;;;5034423;28;19913;-82
2022/09/27 13:38:53;;;;;;;;;;;15.50;68.20;;;;;;5025469;28;19935;-84
2022/09/27 13:41:20;;;;;;;;;;;15.50;68.20;;;;;;5035192;28;19970;-83
2022/09/27 13:44:06;;;;;;;;;;;15.50;68.20;;;;;;5038165;28;19956;-83
2022/09/27 13:46:55;;;;;;;;;;;15.50;68.20;;;;;;5024096;28;20223;-83
2022/09/27 13:49:28;;;;;;;;;;;15.50;68.20;;;;;;5018656;28;19920;-83
2022/09/27 13:52:30;;;;;;;;;;;15.60;68.20;;;;;;5040558;28;19975;-83
2022/09/27 13:55:27;;;;;;;;;;;15.50;68.20;;;;;;5009790;28;20366;-83
2022/09/27 13:58:02;;;;;;;;;;;15.50;68.20;;;;;;5047171;28;19913;-84
2022/09/27 14:00:33;;;;;;;;;;;15.60;68.20;;;;;;5012929;28;19913;-83
2022/09/27 14:03:01;;;;;;;;;;;15.50;68.10;;;;;;5029639;28;19920;-83
2022/09/27 14:05:34;;;;;;;;;;;15.60;68.20;;;;;;5026356;28;19963;-82
2022/09/27 14:08:01;;;;;;;;;;;15.60;68.20;;;;;;5038575;28;19928;-83
2022/09/27 14:10:28;;;;;;;;;;;15.60;68.20;;;;;;5015287;28;20336;-83
2022/09/27 14:12:54;;;;;;;;;;;15.60;68.20;;;;;;5014945;28;19928;-83
2022/09/27 14:15:23;;;;;;;;;;;15.60;68.20;;;;;;5024305;28;20262;-83
2022/09/27 14:17:51;;;;;;;;;;;15.60;68.10;;;;;;5007134;28;20408;-83
2022/09/27 14:20:33;;;;;;;;;;;15.60;68.10;;;;;;5020959;28;20393;-83
2022/09/27 14:23:02;;;;;;;;;;;15.60;68.10;;;;;;5019048;28;20016;-84
2022/09/27 14:25:32;;;;;;;;;;;15.60;68.10;;;;;;5015855;28;19917;-83
2022/09/27 14:27:59;;;;;;;;;;;15.60;68.10;;;;;;5033190;28;19924;-83
2022/09/27 14:30:32;;;;;;;;;;;15.60;68.10;;;;;;5026980;28;19920;-82
2022/09/27 14:33:28;;;;;;;;;;;15.60;68.10;;;;;;5029112;28;20254;-83
2022/09/27 14:38:40;;;;;;;;;;;15.60;68.00;;;;;;5036334;28;20376;-82
2022/09/27 14:41:24;;;;;;;;;;;15.60;68.00;;;;;;5026803;28;19912;-82
2022/09/27 14:43:51;;;;;;;;;;;15.60;68.00;;;;;;5032708;28;19930;-83
2022/09/27 14:46:27;;;;;;;;;;;15.60;68.00;;;;;;5002368;28;19974;-83
2022/09/27 14:48:53;;;;;;;;;;;15.60;68.00;;;;;;5013616;28;20004;-83
2022/09/27 14:51:20;;;;;;;;;;;15.60;68.00;;;;;;5037919;28;20047;-82
2022/09/27 14:53:55;;;;;;;;;;;15.60;68.00;;;;;;5021767;28;19920;-83
2022/09/27 14:56:26;;;;;;;;;;;15.60;68.00;;;;;;5004753;28;20001;-83
2022/09/27 14:58:55;;;;;;;;;;;15.60;68.00;;;;;;5021360;28;20530;-82
2022/09/27 15:01:21;;;;;;;;;;;15.60;68.00;;;;;;5017931;28;19909;-82